sensor_id;sensor_type;location;lat;lon;timestamp;temperature;humidity
57386;DHT22;62655;56.780;23.922;2022-12-07T00:01:32;-1.50;99.90
57386;DHT22;62655;56.780;23.922;2022-12-07T00:04:01;-1.50;99.90
57386;DHT22;62655;56.780;23.922;2022-12-07T00:06:39;-1.40;99.90
57386;DHT22;62655;56.780;23.922;2022-12-07T00:09:10;-1.40;99.90
57386;DHT22;62655;56.780;23.922;2022-12-07T00:11:38;-1.40;99.90
57386;DHT22;62655;56.780;23.922;2022-12-07T00:14:10;-1.50;99.90
57386;DHT22;62655;56.780;23.922;2022-12-07T00:16:38;-1.50;99.90
57386;DHT22;62655;56.780;23.922;2022-12-07T00:19:05;-1.40;99.90
57386;DHT22;62655;56.780;23.922;2022-12-07T00:21:35;-1.50;99.90
57386;DHT22;62655;56.780;23.922;2022-12-07T00:24:04;-1.50;99.90
57386;DHT22;62655;56.780;23.922;2022-12-07T00:26:38;-1.50;99.90
57386;DHT22;62655;56.780;23.922;2022-12-07T00:29:08;-1.50;99.90
57386;DHT22;62655;56.780;23.922;2022-12-07T00:31:37;-1.50;99.90
57386;DHT22;62655;56.780;23.922;2022-12-07T00:34:12;-1.40;99.90
57386;DHT22;62655;56.780;23.922;2022-12-07T00:36:40;-1.50;99.90
57386;DHT22;62655;56.780;23.922;2022-12-07T00:39:08;-1.50;99.90
57386;DHT22;62655;56.780;23.922;2022-12-07T00:41:36;-1.50;99.90
57386;DHT22;62655;56.780;23.922;2022-12-07T00:44:03;-1.50;99.90
57386;DHT22;62655;56.780;23.922;2022-12-07T00:46:31;-1.50;99.90
57386;DHT22;62655;56.780;23.922;2022-12-07T00:48:58;-1.50;99.90
57386;DHT22;62655;56.780;23.922;2022-12-07T00:51:26;-1.50;99.90
57386;DHT22;62655;56.780;23.922;2022-12-07T00:53:54;-1.50;99.90
57386;DHT22;62655;56.780;23.922;2022-12-07T00:56:24;-1.50;99.90
57386;DHT22;62655;56.780;23.922;2022-12-07T00:58:53;-1.50;99.90
57386;DHT22;62655;56.780;23.922;2022-12-07T01:01:22;-1.50;99.90
57386;DHT22;62655;56.780;23.922;2022-12-07T01:03:50;-1.50;99.90
57386;DHT22;62655;56.780;23.922;2022-12-07T01:06:20;-1.50;99.90
57386;DHT22;62655;56.780;23.922;2022-12-07T01:08:48;-1.50;99.90
57386;DHT22;62655;56.780;23.922;2022-12-07T01:11:19;-1.50;99.90
57386;DHT22;62655;56.780;23.922;2022-12-07T01:13:47;-1.60;99.90
57386;DHT22;62655;56.780;23.922;2022-12-07T01:16:16;-1.50;99.90
57386;DHT22;62655;56.780;23.922;2022-12-07T01:18:47;-1.60;99.90
57386;DHT22;62655;56.780;23.922;2022-12-07T01:21:23;-1.50;99.90
57386;DHT22;62655;56.780;23.922;2022-12-07T01:23:51;-1.50;99.90
57386;DHT22;62655;56.780;23.922;2022-12-07T01:26:22;-1.50;99.90
57386;DHT22;62655;56.780;23.922;2022-12-07T01:28:49;-1.50;99.90
57386;DHT22;62655;56.780;23.922;2022-12-07T01:31:19;-1.50;99.90
57386;DHT22;62655;56.780;23.922;2022-12-07T01:33:52;-1.50;99.90
57386;DHT22;62655;56.780;23.922;2022-12-07T01:36:26;-1.50;99.90
57386;DHT22;62655;56.780;23.922;2022-12-07T01:39:05;-1.50;99.90
57386;DHT22;62655;56.780;23.922;2022-12-07T01:41:35;-1.50;99.90
57386;DHT22;62655;56.780;23.922;2022-12-07T01:44:23;-1.50;99.90
57386;DHT22;62655;56.780;23.922;2022-12-07T01:46:56;-1.50;99.90
57386;DHT22;62655;56.780;23.922;2022-12-07T01:49:37;-1.50;99.90
57386;DHT22;62655;56.780;23.922;2022-12-07T01:52:23;-1.50;99.90
57386;DHT22;62655;56.780;23.922;2022-12-07T01:54:54;-1.60;99.90
57386;DHT22;62655;56.780;23.922;2022-12-07T01:57:23;-1.60;99.90
57386;DHT22;62655;56.780;23.922;2022-12-07T01:59:52;-1.60;99.90
57386;DHT22;62655;56.780;23.922;2022-12-07T02:02:27;-1.60;99.90
57386;DHT22;62655;56.780;23.922;2022-12-07T02:04:57;-1.50;99.90
57386;DHT22;62655;56.780;23.922;2022-12-07T02:07:27;-1.60;99.90
57386;DHT22;62655;56.780;23.922;2022-12-07T02:09:55;-1.60;99.90
57386;DHT22;62655;56.780;23.922;2022-12-07T02:12:23;-1.50;99.90
57386;DHT22;62655;56.780;23.922;2022-12-07T02:14:51;-1.60;99.90
57386;DHT22;62655;56.780;23.922;2022-12-07T02:17:29;-1.60;99.90
57386;DHT22;62655;56.780;23.922;2022-12-07T02:25:22;-1.60;99.90
57386;DHT22;62655;56.780;23.922;2022-12-07T02:27:56;-1.60;99.90
57386;DHT22;62655;56.780;23.922;2022-12-07T02:30:31;-1.60;99.90
57386;DHT22;62655;56.780;23.922;2022-12-07T02:33:14;-1.60;99.90
57386;DHT22;62655;56.780;23.922;2022-12-07T02:35:53;-1.60;99.90
57386;DHT22;62655;56.780;23.922;2022-12-07T02:41:12;-1.60;99.90
57386;DHT22;62655;56.780;23.922;2022-12-07T02:43:47;-1.60;99.90
57386;DHT22;62655;56.780;23.922;2022-12-07T02:46:31;-1.60;99.90
57386;DHT22;62655;56.780;23.922;2022-12-07T02:49:01;-1.60;99.90
57386;DHT22;62655;56.780;23.922;2022-12-07T02:51:33;-1.50;99.90
57386;DHT22;62655;56.780;23.922;2022-12-07T02:54:00;-1.50;99.90
57386;DHT22;62655;56.780;23.922;2022-12-07T02:56:45;-1.60;99.90
57386;DHT22;62655;56.780;23.922;2022-12-07T02:59:32;-1.60;99.90
57386;DHT22;62655;56.780;23.922;2022-12-07T03:05:00;-1.60;99.90
57386;DHT22;62655;56.780;23.922;2022-12-07T03:18:16;-1.60;99.90
57386;DHT22;62655;56.780;23.922;2022-12-07T03:20:46;-1.60;99.90
57386;DHT22;62655;56.780;23.922;2022-12-07T03:23:16;-1.60;99.90
57386;DHT22;62655;56.780;23.922;2022-12-07T03:25:48;-1.60;99.90
57386;DHT22;62655;56.780;23.922;2022-12-07T03:28:29;-1.50;99.90
57386;DHT22;62655;56.780;23.922;2022-12-07T03:31:10;-1.50;99.90
57386;DHT22;62655;56.780;23.922;2022-12-07T03:33:53;-1.50;99.90
57386;DHT22;62655;56.780;23.922;2022-12-07T03:36:45;-1.60;99.90
57386;DHT22;62655;56.780;23.922;2022-12-07T03:39:45;-1.60;99.90
57386;DHT22;62655;56.780;23.922;2022-12-07T03:42:14;-1.50;99.90
57386;DHT22;62655;56.780;23.922;2022-12-07T03:44:42;-1.60;99.90
57386;DHT22;62655;56.780;23.922;2022-12-07T03:47:22;-1.60;99.90
57386;DHT22;62655;56.780;23.922;2022-12-07T03:52:56;-1.50;99.90
57386;DHT22;62655;56.780;23.922;2022-12-07T03:55:34;-1.50;99.90
57386;DHT22;62655;56.780;23.922;2022-12-07T03:58:09;-1.50;99.90
57386;DHT22;62655;56.780;23.922;2022-12-07T04:00:38;-1.50;99.90
57386;DHT22;62655;56.780;23.922;2022-12-07T04:03:07;-1.50;99.90
57386;DHT22;62655;56.780;23.922;2022-12-07T04:05:35;-1.50;99.90
57386;DHT22;62655;56.780;23.922;2022-12-07T04:08:03;-1.50;99.90
57386;DHT22;62655;56.780;23.922;2022-12-07T04:10:31;-1.50;99.90
57386;DHT22;62655;56.780;23.922;2022-12-07T04:12:59;-1.50;99.90
57386;DHT22;62655;56.780;23.922;2022-12-07T04:15:26;-1.50;99.90
57386;DHT22;62655;56.780;23.922;2022-12-07T04:17:54;-1.50;99.90
57386;DHT22;62655;56.780;23.922;2022-12-07T04:20:22;-1.50;99.90
57386;DHT22;62655;56.780;23.922;2022-12-07T04:22:50;-1.50;99.90
57386;DHT22;62655;56.780;23.922;2022-12-07T04:25:17;-1.50;99.90
57386;DHT22;62655;56.780;23.922;2022-12-07T04:27:44;-1.50;99.90
57386;DHT22;62655;56.780;23.922;2022-12-07T04:30:12;-1.50;99.90
57386;DHT22;62655;56.780;23.922;2022-12-07T04:32:40;-1.50;99.90
57386;DHT22;62655;56.780;23.922;2022-12-07T04:35:08;-1.50;99.90
57386;DHT22;62655;56.780;23.922;2022-12-07T04:37:35;-1.50;99.90
57386;DHT22;62655;56.780;23.922;2022-12-07T04:40:03;-1.50;99.90
57386;DHT22;62655;56.780;23.922;2022-12-07T04:42:31;-1.40;99.90
57386;DHT22;62655;56.780;23.922;2022-12-07T04:44:58;-1.40;99.90
57386;DHT22;62655;56.780;23.922;2022-12-07T04:47:26;-1.40;99.90
57386;DHT22;62655;56.780;23.922;2022-12-07T04:49:53;-1.40;99.90
57386;DHT22;62655;56.780;23.922;2022-12-07T04:52:21;-1.40;99.90
57386;DHT22;62655;56.780;23.922;2022-12-07T04:54:50;-1.40;99.90
57386;DHT22;62655;56.780;23.922;2022-12-07T04:57:17;-1.50;99.90
57386;DHT22;62655;56.780;23.922;2022-12-07T04:59:44;-1.40;99.90
57386;DHT22;62655;56.780;23.922;2022-12-07T05:02:12;-1.50;99.90
57386;DHT22;62655;56.780;23.922;2022-12-07T05:04:40;-1.40;99.90
57386;DHT22;62655;56.780;23.922;2022-12-07T05:07:07;-1.50;99.90
57386;DHT22;62655;56.780;23.922;2022-12-07T05:09:35;-1.50;99.90
57386;DHT22;62655;56.780;23.922;2022-12-07T05:12:02;-1.40;99.90
57386;DHT22;62655;56.780;23.922;2022-12-07T05:14:30;-1.40;99.90
57386;DHT22;62655;56.780;23.922;2022-12-07T05:16:57;-1.40;99.90
57386;DHT22;62655;56.780;23.922;2022-12-07T05:19:24;-1.40;99.90
57386;DHT22;62655;56.780;23.922;2022-12-07T05:21:53;-1.40;99.90
57386;DHT22;62655;56.780;23.922;2022-12-07T05:24:20;-1.40;99.90
57386;DHT22;62655;56.780;23.922;2022-12-07T05:26:48;-1.40;99.90
57386;DHT22;62655;56.780;23.922;2022-12-07T05:29:16;-1.40;99.90
57386;DHT22;62655;56.780;23.922;2022-12-07T05:31:44;-1.40;99.90
57386;DHT22;62655;56.780;23.922;2022-12-07T05:34:12;-1.40;99.90
57386;DHT22;62655;56.780;23.922;2022-12-07T05:36:40;-1.40;99.90
57386;DHT22;62655;56.780;23.922;2022-12-07T05:39:08;-1.40;99.90
57386;DHT22;62655;56.780;23.922;2022-12-07T05:41:35;-1.40;99.90
57386;DHT22;62655;56.780;23.922;2022-12-07T05:44:21;-1.40;99.90
57386;DHT22;62655;56.780;23.922;2022-12-07T05:46:48;-1.40;99.90
57386;DHT22;62655;56.780;23.922;2022-12-07T05:49:16;-1.40;99.90
57386;DHT22;62655;56.780;23.922;2022-12-07T05:51:44;-1.40;99.90
57386;DHT22;62655;56.780;23.922;2022-12-07T05:54:11;-1.40;99.90
57386;DHT22;62655;56.780;23.922;2022-12-07T05:56:38;-1.40;99.90
57386;DHT22;62655;56.780;23.922;2022-12-07T05:59:07;-1.40;99.90
57386;DHT22;62655;56.780;23.922;2022-12-07T06:01:58;-1.40;99.90
57386;DHT22;62655;56.780;23.922;2022-12-07T06:04:28;-1.40;99.90
57386;DHT22;62655;56.780;23.922;2022-12-07T06:06:56;-1.40;99.90
57386;DHT22;62655;56.780;23.922;2022-12-07T06:09:25;-1.40;99.90
57386;DHT22;62655;56.780;23.922;2022-12-07T06:11:54;-1.40;99.90
57386;DHT22;62655;56.780;23.922;2022-12-07T06:14:40;-1.40;99.90
57386;DHT22;62655;56.780;23.922;2022-12-07T06:17:08;-1.40;99.90
57386;DHT22;62655;56.780;23.922;2022-12-07T06:19:36;-1.40;99.90
57386;DHT22;62655;56.780;23.922;2022-12-07T06:22:04;-1.40;99.90
57386;DHT22;62655;56.780;23.922;2022-12-07T06:24:32;-1.50;99.90
57386;DHT22;62655;56.780;23.922;2022-12-07T06:27:00;-1.40;99.90
57386;DHT22;62655;56.780;23.922;2022-12-07T06:29:27;-1.40;99.90
57386;DHT22;62655;56.780;23.922;2022-12-07T06:31:55;-1.50;99.90
57386;DHT22;62655;56.780;23.922;2022-12-07T06:34:24;-1.50;99.90
57386;DHT22;62655;56.780;23.922;2022-12-07T06:36:52;-1.50;99.90
57386;DHT22;62655;56.780;23.922;2022-12-07T06:39:26;-1.50;99.90
57386;DHT22;62655;56.780;23.922;2022-12-07T06:41:54;-1.50;99.90
57386;DHT22;62655;56.780;23.922;2022-12-07T06:44:22;-1.50;99.90
57386;DHT22;62655;56.780;23.922;2022-12-07T06:46:51;-1.50;99.90
57386;DHT22;62655;56.780;23.922;2022-12-07T06:49:32;-1.50;99.90
57386;DHT22;62655;56.780;23.922;2022-12-07T06:52:00;-1.50;99.90
57386;DHT22;62655;56.780;23.922;2022-12-07T06:54:27;-1.50;99.90
57386;DHT22;62655;56.780;23.922;2022-12-07T06:56:57;-1.50;99.90
57386;DHT22;62655;56.780;23.922;2022-12-07T06:59:24;-1.50;99.90
57386;DHT22;62655;56.780;23.922;2022-12-07T07:01:52;-1.50;99.90
57386;DHT22;62655;56.780;23.922;2022-12-07T07:04:20;-1.50;99.90
57386;DHT22;62655;56.780;23.922;2022-12-07T07:06:47;-1.50;99.90
57386;DHT22;62655;56.780;23.922;2022-12-07T07:09:15;-1.50;99.90
57386;DHT22;62655;56.780;23.922;2022-12-07T07:11:42;-1.50;99.90
57386;DHT22;62655;56.780;23.922;2022-12-07T07:14:10;-1.50;99.90
57386;DHT22;62655;56.780;23.922;2022-12-07T07:16:37;-1.50;99.90
57386;DHT22;62655;56.780;23.922;2022-12-07T07:19:05;-1.50;99.90
57386;DHT22;62655;56.780;23.922;2022-12-07T07:21:32;-1.50;99.90
57386;DHT22;62655;56.780;23.922;2022-12-07T07:24:00;-1.60;99.90
57386;DHT22;62655;56.780;23.922;2022-12-07T07:26:27;-1.50;99.90
57386;DHT22;62655;56.780;23.922;2022-12-07T07:28:55;-1.60;99.90
57386;DHT22;62655;56.780;23.922;2022-12-07T07:31:22;-1.60;99.90
57386;DHT22;62655;56.780;23.922;2022-12-07T07:33:50;-1.50;99.90
57386;DHT22;62655;56.780;23.922;2022-12-07T07:36:17;-1.50;99.90
57386;DHT22;62655;56.780;23.922;2022-12-07T07:38:45;-1.60;99.90
57386;DHT22;62655;56.780;23.922;2022-12-07T07:41:12;-1.60;99.90
57386;DHT22;62655;56.780;23.922;2022-12-07T07:43:40;-1.60;99.90
57386;DHT22;62655;56.780;23.922;2022-12-07T07:46:07;-1.60;99.90
57386;DHT22;62655;56.780;23.922;2022-12-07T07:48:35;-1.50;99.90
57386;DHT22;62655;56.780;23.922;2022-12-07T07:51:06;-1.60;99.90
57386;DHT22;62655;56.780;23.922;2022-12-07T07:53:34;-1.50;99.90
57386;DHT22;62655;56.780;23.922;2022-12-07T07:56:02;-1.60;99.90
57386;DHT22;62655;56.780;23.922;2022-12-07T07:58:29;-1.50;99.90
57386;DHT22;62655;56.780;23.922;2022-12-07T08:01:02;-1.60;99.90
57386;DHT22;62655;56.780;23.922;2022-12-07T08:03:30;-1.50;99.90
57386;DHT22;62655;56.780;23.922;2022-12-07T08:05:58;-1.60;99.90
57386;DHT22;62655;56.780;23.922;2022-12-07T08:08:25;-1.60;99.90
57386;DHT22;62655;56.780;23.922;2022-12-07T08:10:53;-1.60;99.90
57386;DHT22;62655;56.780;23.922;2022-12-07T08:13:21;-1.60;99.90
57386;DHT22;62655;56.780;23.922;2022-12-07T08:15:57;-1.50;99.90
57386;DHT22;62655;56.780;23.922;2022-12-07T08:18:25;-1.50;99.90
57386;DHT22;62655;56.780;23.922;2022-12-07T08:20:52;-1.50;99.90
57386;DHT22;62655;56.780;23.922;2022-12-07T08:23:25;-1.60;99.90
57386;DHT22;62655;56.780;23.922;2022-12-07T08:26:07;-1.50;99.90
57386;DHT22;62655;56.780;23.922;2022-12-07T08:28:36;-1.50;99.90
57386;DHT22;62655;56.780;23.922;2022-12-07T08:31:16;-1.50;99.90
57386;DHT22;62655;56.780;23.922;2022-12-07T08:33:47;-1.60;99.90
57386;DHT22;62655;56.780;23.922;2022-12-07T08:36:15;-1.50;99.90
57386;DHT22;62655;56.780;23.922;2022-12-07T08:38:43;-1.50;99.90
57386;DHT22;62655;56.780;23.922;2022-12-07T08:41:31;-1.60;99.90
57386;DHT22;62655;56.780;23.922;2022-12-07T08:43:58;-1.50;99.90
57386;DHT22;62655;56.780;23.922;2022-12-07T08:46:35;-1.50;99.90
57386;DHT22;62655;56.780;23.922;2022-12-07T08:49:09;-1.50;99.90
57386;DHT22;62655;56.780;23.922;2022-12-07T08:51:39;-1.50;99.90
57386;DHT22;62655;56.780;23.922;2022-12-07T08:54:16;-1.50;99.90
57386;DHT22;62655;56.780;23.922;2022-12-07T08:56:45;-1.50;99.90
57386;DHT22;62655;56.780;23.922;2022-12-07T08:59:14;-1.50;99.90
57386;DHT22;62655;56.780;23.922;2022-12-07T09:01:43;-1.40;99.90
57386;DHT22;62655;56.780;23.922;2022-12-07T09:04:11;-1.40;99.90
57386;DHT22;62655;56.780;23.922;2022-12-07T09:06:40;-1.40;99.90
57386;DHT22;62655;56.780;23.922;2022-12-07T09:09:08;-1.50;99.90
57386;DHT22;62655;56.780;23.922;2022-12-07T09:11:36;-1.40;99.90
57386;DHT22;62655;56.780;23.922;2022-12-07T09:14:03;-1.40;99.90
57386;DHT22;62655;56.780;23.922;2022-12-07T09:16:31;-1.40;99.90
57386;DHT22;62655;56.780;23.922;2022-12-07T09:18:59;-1.40;99.90
57386;DHT22;62655;56.780;23.922;2022-12-07T09:21:26;-1.40;99.90
57386;DHT22;62655;56.780;23.922;2022-12-07T09:23:53;-1.40;99.90
57386;DHT22;62655;56.780;23.922;2022-12-07T09:26:21;-1.50;99.90
57386;DHT22;62655;56.780;23.922;2022-12-07T09:28:48;-1.50;99.90
57386;DHT22;62655;56.780;23.922;2022-12-07T09:31:17;-1.40;99.90
57386;DHT22;62655;56.780;23.922;2022-12-07T09:33:59;-1.40;99.90
57386;DHT22;62655;56.780;23.922;2022-12-07T09:36:27;-1.40;99.90
57386;DHT22;62655;56.780;23.922;2022-12-07T09:38:55;-1.40;99.90
57386;DHT22;62655;56.780;23.922;2022-12-07T09:41:24;-1.50;99.90
57386;DHT22;62655;56.780;23.922;2022-12-07T09:43:53;-1.50;99.90
57386;DHT22;62655;56.780;23.922;2022-12-07T09:46:32;-1.50;99.90
57386;DHT22;62655;56.780;23.922;2022-12-07T09:49:04;-1.50;99.90
57386;DHT22;62655;56.780;23.922;2022-12-07T09:51:32;-1.50;99.90
57386;DHT22;62655;56.780;23.922;2022-12-07T09:54:00;-1.40;99.90
57386;DHT22;62655;56.780;23.922;2022-12-07T09:56:29;-1.40;99.90
57386;DHT22;62655;56.780;23.922;2022-12-07T09:59:01;-1.40;99.90
57386;DHT22;62655;56.780;23.922;2022-12-07T10:01:31;-1.40;99.90
57386;DHT22;62655;56.780;23.922;2022-12-07T10:04:13;-1.30;99.90
57386;DHT22;62655;56.780;23.922;2022-12-07T10:06:42;-1.50;99.90
57386;DHT22;62655;56.780;23.922;2022-12-07T10:09:15;-1.40;99.90
57386;DHT22;62655;56.780;23.922;2022-12-07T10:14:31;-1.40;99.90
57386;DHT22;62655;56.780;23.922;2022-12-07T10:18:01;-1.40;99.90
57386;DHT22;62655;56.780;23.922;2022-12-07T10:20:14;-1.40;99.90
57386;DHT22;62655;56.780;23.922;2022-12-07T10:23:03;-1.50;99.90
57386;DHT22;62655;56.780;23.922;2022-12-07T10:25:36;-1.40;99.90
57386;DHT22;62655;56.780;23.922;2022-12-07T10:31:01;-1.50;99.90
57386;DHT22;62655;56.780;23.922;2022-12-07T10:33:38;-1.40;99.90
57386;DHT22;62655;56.780;23.922;2022-12-07T10:36:25;-1.40;99.90
57386;DHT22;62655;56.780;23.922;2022-12-07T10:39:11;-1.40;99.90
57386;DHT22;62655;56.780;23.922;2022-12-07T10:41:57;-1.30;99.90
57386;DHT22;62655;56.780;23.922;2022-12-07T10:44:27;-1.30;99.90
57386;DHT22;62655;56.780;23.922;2022-12-07T10:53:10;-1.30;99.90
57386;DHT22;62655;56.780;23.922;2022-12-07T11:01:13;-1.50;99.90
57386;DHT22;62655;56.780;23.922;2022-12-07T11:10:02;-1.50;99.90
57386;DHT22;62655;56.780;23.922;2022-12-07T11:16:19;-1.40;99.90
57386;DHT22;62655;56.780;23.922;2022-12-07T11:22:01;-1.50;99.90
57386;DHT22;62655;56.780;23.922;2022-12-07T11:24:46;-1.50;99.90
57386;DHT22;62655;56.780;23.922;2022-12-07T11:27:33;-1.50;99.90
57386;DHT22;62655;56.780;23.922;2022-12-07T11:32:44;-1.50;99.90
57386;DHT22;62655;56.780;23.922;2022-12-07T11:37:43;-1.50;99.90
57386;DHT22;62655;56.780;23.922;2022-12-07T11:40:21;-1.50;99.90
57386;DHT22;62655;56.780;23.922;2022-12-07T11:43:21;-1.50;99.90
57386;DHT22;62655;56.780;23.922;2022-12-07T11:46:08;-1.50;99.90
57386;DHT22;62655;56.780;23.922;2022-12-07T11:48:45;-1.50;99.90
57386;DHT22;62655;56.780;23.922;2022-12-07T11:51:16;-1.50;99.90
57386;DHT22;62655;56.780;23.922;2022-12-07T11:53:51;-1.60;99.90
57386;DHT22;62655;56.780;23.922;2022-12-07T11:56:22;-1.60;99.90
57386;DHT22;62655;56.780;23.922;2022-12-07T11:58:58;-1.60;99.90
57386;DHT22;62655;56.780;23.922;2022-12-07T12:01:48;-1.60;99.90
57386;DHT22;62655;56.780;23.922;2022-12-07T12:04:39;-1.60;99.90
57386;DHT22;62655;56.780;23.922;2022-12-07T12:07:14;-1.60;99.90
57386;DHT22;62655;56.780;23.922;2022-12-07T12:13:20;-1.60;99.90
57386;DHT22;62655;56.780;23.922;2022-12-07T12:16:34;-1.60;99.90
57386;DHT22;62655;56.780;23.922;2022-12-07T12:19:35;-1.70;99.90
57386;DHT22;62655;56.780;23.922;2022-12-07T12:22:20;-1.70;99.90
57386;DHT22;62655;56.780;23.922;2022-12-07T12:24:52;-1.70;99.90
57386;DHT22;62655;56.780;23.922;2022-12-07T12:27:27;-1.60;99.90
57386;DHT22;62655;56.780;23.922;2022-12-07T12:30:02;-1.60;99.90
57386;DHT22;62655;56.780;23.922;2022-12-07T12:32:40;-1.70;99.90
57386;DHT22;62655;56.780;23.922;2022-12-07T12:41:02;-1.70;99.90
57386;DHT22;62655;56.780;23.922;2022-12-07T12:43:42;-1.70;99.90
57386;DHT22;62655;56.780;23.922;2022-12-07T12:49:30;-1.80;99.90
57386;DHT22;62655;56.780;23.922;2022-12-07T12:54:36;-1.70;99.90
57386;DHT22;62655;56.780;23.922;2022-12-07T12:57:24;-1.70;99.90
57386;DHT22;62655;56.780;23.922;2022-12-07T13:02:28;-1.80;99.90
57386;DHT22;62655;56.780;23.922;2022-12-07T13:18:38;-1.90;99.90
57386;DHT22;62655;56.780;23.922;2022-12-07T13:26:39;-1.90;99.90
57386;DHT22;62655;56.780;23.922;2022-12-07T13:29:20;-1.90;99.90
57386;DHT22;62655;56.780;23.922;2022-12-07T13:31:54;-1.90;99.90
57386;DHT22;62655;56.780;23.922;2022-12-07T13:34:40;-1.90;99.90
57386;DHT22;62655;56.780;23.922;2022-12-07T13:37:15;-2.00;99.90
57386;DHT22;62655;56.780;23.922;2022-12-07T13:42:31;-2.00;99.90
57386;DHT22;62655;56.780;23.922;2022-12-07T13:45:17;-2.00;99.90
57386;DHT22;62655;56.780;23.922;2022-12-07T13:47:54;-2.00;99.90
57386;DHT22;62655;56.780;23.922;2022-12-07T13:50:30;-2.00;99.90
57386;DHT22;62655;56.780;23.922;2022-12-07T13:53:00;-2.00;99.90
57386;DHT22;62655;56.780;23.922;2022-12-07T13:55:28;-2.00;99.90
57386;DHT22;62655;56.780;23.922;2022-12-07T13:57:57;-2.10;99.90
57386;DHT22;62655;56.780;23.922;2022-12-07T14:00:26;-2.10;99.90
57386;DHT22;62655;56.780;23.922;2022-12-07T14:02:56;-2.10;99.90
57386;DHT22;62655;56.780;23.922;2022-12-07T14:05:36;-2.10;99.90
57386;DHT22;62655;56.780;23.922;2022-12-07T14:13:30;-2.10;99.90
57386;DHT22;62655;56.780;23.922;2022-12-07T14:15:58;-2.10;99.90
57386;DHT22;62655;56.780;23.922;2022-12-07T14:18:46;-2.10;99.90
57386;DHT22;62655;56.780;23.922;2022-12-07T14:21:20;-2.10;99.90
57386;DHT22;62655;56.780;23.922;2022-12-07T14:24:18;-2.10;99.90
57386;DHT22;62655;56.780;23.922;2022-12-07T14:26:48;-2.10;99.90
57386;DHT22;62655;56.780;23.922;2022-12-07T14:29:42;-2.10;99.90
57386;DHT22;62655;56.780;23.922;2022-12-07T14:35:07;-2.10;99.90
57386;DHT22;62655;56.780;23.922;2022-12-07T14:37:37;-2.10;99.90
57386;DHT22;62655;56.780;23.922;2022-12-07T14:40:07;-2.10;99.90
57386;DHT22;62655;56.780;23.922;2022-12-07T14:42:35;-2.10;99.90
57386;DHT22;62655;56.780;23.922;2022-12-07T14:45:03;-2.10;99.90
57386;DHT22;62655;56.780;23.922;2022-12-07T14:47:33;-2.10;99.90
57386;DHT22;62655;56.780;23.922;2022-12-07T14:50:23;-2.10;99.90
57386;DHT22;62655;56.780;23.922;2022-12-07T14:52:55;-2.00;99.90
57386;DHT22;62655;56.780;23.922;2022-12-07T14:55:44;-2.10;99.90
57386;DHT22;62655;56.780;23.922;2022-12-07T14:58:14;-2.10;99.90
57386;DHT22;62655;56.780;23.922;2022-12-07T15:00:43;-2.10;99.90
57386;DHT22;62655;56.780;23.922;2022-12-07T15:03:12;-2.10;99.90
57386;DHT22;62655;56.780;23.922;2022-12-07T15:05:42;-2.00;99.90
57386;DHT22;62655;56.780;23.922;2022-12-07T15:08:13;-2.00;99.90
57386;DHT22;62655;56.780;23.922;2022-12-07T15:10:41;-2.00;99.90
57386;DHT22;62655;56.780;23.922;2022-12-07T15:13:09;-2.00;99.90
57386;DHT22;62655;56.780;23.922;2022-12-07T15:15:56;-2.00;99.90
57386;DHT22;62655;56.780;23.922;2022-12-07T15:18:25;-2.10;99.90
57386;DHT22;62655;56.780;23.922;2022-12-07T15:20:53;-2.10;99.90
57386;DHT22;62655;56.780;23.922;2022-12-07T15:23:20;-2.10;99.90
57386;DHT22;62655;56.780;23.922;2022-12-07T15:25:49;-2.10;99.90
57386;DHT22;62655;56.780;23.922;2022-12-07T15:28:18;-2.10;99.90
57386;DHT22;62655;56.780;23.922;2022-12-07T15:30:47;-2.10;99.90
57386;DHT22;62655;56.780;23.922;2022-12-07T15:33:15;-2.10;99.90
57386;DHT22;62655;56.780;23.922;2022-12-07T15:35:45;-2.10;99.90
57386;DHT22;62655;56.780;23.922;2022-12-07T15:38:14;-2.10;99.90
57386;DHT22;62655;56.780;23.922;2022-12-07T15:40:46;-2.10;99.90
57386;DHT22;62655;56.780;23.922;2022-12-07T15:43:15;-2.10;99.90
57386;DHT22;62655;56.780;23.922;2022-12-07T15:46:02;-2.10;99.90
57386;DHT22;62655;56.780;23.922;2022-12-07T15:48:32;-2.10;99.90
57386;DHT22;62655;56.780;23.922;2022-12-07T15:51:05;-2.10;99.90
57386;DHT22;62655;56.780;23.922;2022-12-07T15:53:35;-2.10;99.90
57386;DHT22;62655;56.780;23.922;2022-12-07T15:56:06;-2.10;99.90
57386;DHT22;62655;56.780;23.922;2022-12-07T15:58:35;-2.10;99.90
57386;DHT22;62655;56.780;23.922;2022-12-07T16:01:14;-2.10;99.90
57386;DHT22;62655;56.780;23.922;2022-12-07T16:03:44;-2.00;99.90
57386;DHT22;62655;56.780;23.922;2022-12-07T16:06:16;-2.10;99.90
57386;DHT22;62655;56.780;23.922;2022-12-07T16:08:46;-2.10;99.90
57386;DHT22;62655;56.780;23.922;2022-12-07T16:11:14;-2.10;99.90
57386;DHT22;62655;56.780;23.922;2022-12-07T16:13:42;-2.10;99.90
57386;DHT22;62655;56.780;23.922;2022-12-07T16:16:14;-2.10;99.90
57386;DHT22;62655;56.780;23.922;2022-12-07T16:18:46;-2.20;99.90
57386;DHT22;62655;56.780;23.922;2022-12-07T16:21:15;-2.10;99.90
57386;DHT22;62655;56.780;23.922;2022-12-07T16:23:51;-2.10;99.90
57386;DHT22;62655;56.780;23.922;2022-12-07T16:26:21;-2.10;99.90
57386;DHT22;62655;56.780;23.922;2022-12-07T16:28:51;-2.10;99.90
57386;DHT22;62655;56.780;23.922;2022-12-07T16:31:23;-2.10;99.90
57386;DHT22;62655;56.780;23.922;2022-12-07T16:33:54;-2.10;99.90
57386;DHT22;62655;56.780;23.922;2022-12-07T16:36:22;-2.10;99.90
57386;DHT22;62655;56.780;23.922;2022-12-07T16:39:12;-2.10;99.90
57386;DHT22;62655;56.780;23.922;2022-12-07T16:41:39;-2.10;99.90
57386;DHT22;62655;56.780;23.922;2022-12-07T16:44:09;-2.10;99.90
57386;DHT22;62655;56.780;23.922;2022-12-07T16:46:38;-2.10;99.90
57386;DHT22;62655;56.780;23.922;2022-12-07T16:49:05;-2.00;99.90
57386;DHT22;62655;56.780;23.922;2022-12-07T16:51:34;-2.10;99.90
57386;DHT22;62655;56.780;23.922;2022-12-07T16:54:04;-2.10;99.90
57386;DHT22;62655;56.780;23.922;2022-12-07T16:56:31;-2.10;99.90
57386;DHT22;62655;56.780;23.922;2022-12-07T16:58:59;-2.10;99.90
57386;DHT22;62655;56.780;23.922;2022-12-07T17:01:26;-2.10;99.90
57386;DHT22;62655;56.780;23.922;2022-12-07T17:03:58;-2.10;99.90
57386;DHT22;62655;56.780;23.922;2022-12-07T17:06:27;-1.70;99.90
57386;DHT22;62655;56.780;23.922;2022-12-07T17:08:56;-2.00;99.90
57386;DHT22;62655;56.780;23.922;2022-12-07T17:11:27;-2.00;99.90
57386;DHT22;62655;56.780;23.922;2022-12-07T17:13:54;-2.00;99.90
57386;DHT22;62655;56.780;23.922;2022-12-07T17:16:40;-2.00;99.90
57386;DHT22;62655;56.780;23.922;2022-12-07T17:19:10;-2.00;99.90
57386;DHT22;62655;56.780;23.922;2022-12-07T17:21:39;-2.00;99.90
57386;DHT22;62655;56.780;23.922;2022-12-07T17:24:09;-2.00;99.90
57386;DHT22;62655;56.780;23.922;2022-12-07T17:26:37;-2.00;99.90
57386;DHT22;62655;56.780;23.922;2022-12-07T17:29:05;-2.00;99.90
57386;DHT22;62655;56.780;23.922;2022-12-07T17:31:35;-2.00;99.90
57386;DHT22;62655;56.780;23.922;2022-12-07T17:34:03;-2.00;99.90